createdAt,value
2023-05-17T00:01:56.161Z,100558.27
2023-05-17T00:04:23.171Z,100558.13
2023-05-17T00:06:50.155Z,100559.46
2023-05-17T00:09:17.095Z,100560.23
2023-05-17T00:11:45.313Z,100561.23
2023-05-17T00:14:12.822Z,100564.43
2023-05-17T00:16:39.708Z,100563.91
2023-05-17T00:19:07.968Z,100566.70
2023-05-17T00:21:35.546Z,100569.31
2023-05-17T00:24:02.391Z,100571.70
2023-05-17T00:26:29.720Z,100572.56
2023-05-17T00:28:56.540Z,100575.94
2023-05-17T00:31:23.404Z,100577.25
2023-05-17T00:33:50.920Z,100577.23
2023-05-17T00:36:17.778Z,100576.05
2023-05-17T00:38:44.857Z,100576.17
2023-05-17T00:41:12.601Z,100578.54
2023-05-17T00:43:39.603Z,100579.81
2023-05-17T00:46:06.708Z,100576.79
2023-05-17T00:48:36.900Z,100577.72
2023-05-17T00:51:03.822Z,100576.30
2023-05-17T00:53:31.625Z,100578.04
2023-05-17T00:55:58.573Z,100577.54
2023-05-17T00:58:26.657Z,100579.08
2023-05-17T01:00:53.557Z,100581.09
2023-05-17T01:03:22.961Z,100581.13
2023-05-17T01:05:51.740Z,100581.58
2023-05-17T01:08:18.637Z,100582.58
2023-05-17T01:10:58.490Z,100585.64
2023-05-17T01:13:33.434Z,100579.34
2023-05-17T01:16:07.996Z,100579.70
2023-05-17T01:18:39.585Z,100580.34
2023-05-17T01:21:16.333Z,100578.52
2023-05-17T01:23:54.099Z,100575.19
2023-05-17T01:26:50.290Z,100580.57
2023-05-17T01:29:17.269Z,100580.48
2023-05-17T01:31:44.420Z,100585.08
2023-05-17T01:34:11.522Z,100586.16
2023-05-17T01:36:42.420Z,100579.55
2023-05-17T01:39:09.262Z,100579.10
2023-05-17T01:41:42.599Z,100582.00
2023-05-17T01:44:26.484Z,100580.64
2023-05-17T01:46:58.460Z,100583.00
2023-05-17T01:49:30.512Z,100583.82
2023-05-17T01:51:58.034Z,100581.63
2023-05-17T01:54:30.999Z,100581.77
2023-05-17T01:56:58.571Z,100581.58
2023-05-17T01:59:25.605Z,100581.25
2023-05-17T02:01:55.439Z,100582.08
2023-05-17T02:04:22.439Z,100581.98
2023-05-17T02:06:49.609Z,100585.09
2023-05-17T02:09:17.481Z,100588.64
2023-05-17T02:11:44.909Z,100585.90
2023-05-17T02:14:11.898Z,100589.20
2023-05-17T02:16:41.826Z,100590.14
2023-05-17T02:19:08.720Z,100592.86
2023-05-17T02:21:35.697Z,100595.05
2023-05-17T02:24:03.288Z,100593.30
2023-05-17T02:26:31.237Z,100592.04
2023-05-17T02:41:12.745Z,100599.89
2023-05-17T02:43:39.955Z,100600.93
2023-05-17T02:46:07.087Z,100606.65
2023-05-17T02:48:34.130Z,100609.50
2023-05-17T02:51:01.207Z,100616.70
2023-05-17T02:53:28.353Z,100617.37
2023-05-17T02:55:58.320Z,100616.89
2023-05-17T02:58:26.073Z,100614.94
2023-05-17T03:00:53.177Z,100613.80
2023-05-17T03:03:26.205Z,100609.73
2023-05-17T03:05:53.363Z,100611.00
2023-05-17T03:08:22.015Z,100614.27
2023-05-17T03:10:49.079Z,100613.80
2023-05-17T03:13:16.601Z,100616.56
2023-05-17T03:15:43.779Z,100615.52
2023-05-17T03:18:11.057Z,100618.31
2023-05-17T03:20:40.052Z,100617.16
2023-05-17T03:23:07.246Z,100616.91
2023-05-17T03:25:38.542Z,100624.56
2023-05-17T03:28:06.326Z,100627.50
2023-05-17T03:30:33.490Z,100629.07
2023-05-17T03:33:00.792Z,100631.70
2023-05-17T03:35:28.200Z,100637.94
2023-05-17T03:37:56.376Z,100639.23
2023-05-17T03:40:24.017Z,100641.96
2023-05-17T03:42:52.003Z,100647.05
2023-05-17T03:45:19.923Z,100646.02
2023-05-17T03:47:47.085Z,100648.51
2023-05-17T03:50:14.696Z,100648.98
2023-05-17T03:52:43.828Z,100652.16
2023-05-17T03:55:10.876Z,100651.05
2023-05-17T03:57:38.233Z,100656.05
2023-05-17T04:00:12.638Z,100656.36
2023-05-17T04:02:42.586Z,100655.36
2023-05-17T04:05:09.967Z,100663.96
2023-05-17T04:07:37.198Z,100662.39
2023-05-17T04:10:04.471Z,100666.15
2023-05-17T04:12:31.612Z,100663.47
2023-05-17T04:14:59.122Z,100664.61
2023-05-17T04:17:26.377Z,100666.70
2023-05-17T04:19:53.665Z,100668.34
2023-05-17T04:22:21.561Z,100671.67
2023-05-17T04:24:49.774Z,100670.92
2023-05-17T04:27:17.175Z,100675.02
2023-05-17T04:29:44.371Z,100672.89
2023-05-17T04:32:11.553Z,100673.86
2023-05-17T04:34:38.753Z,100675.78
2023-05-17T04:37:06.215Z,100677.61
2023-05-17T04:39:34.088Z,100677.82
2023-05-17T04:42:01.090Z,100677.87
2023-05-17T04:44:28.322Z,100678.64
2023-05-17T04:46:55.977Z,100683.66
2023-05-17T04:49:25.303Z,100688.98
2023-05-17T04:51:52.789Z,100689.39
2023-05-17T04:54:20.198Z,100690.55
2023-05-17T04:56:47.260Z,100690.89
2023-05-17T04:59:18.612Z,100697.15
2023-05-17T05:01:46.009Z,100698.63
2023-05-17T05:04:13.136Z,100700.05
2023-05-17T05:06:42.079Z,100704.32
2023-05-17T05:09:09.955Z,100703.83
2023-05-17T05:11:37.823Z,100703.95
2023-05-17T05:14:05.397Z,100699.02
2023-05-17T05:16:32.580Z,100701.98
2023-05-17T05:18:59.908Z,100702.34
2023-05-17T05:21:27.448Z,100704.55
2023-05-17T05:23:55.165Z,100705.73
2023-05-17T05:26:22.223Z,100705.55
2023-05-17T05:28:49.847Z,100701.98
2023-05-17T05:31:17.021Z,100707.25
2023-05-17T05:33:50.275Z,100706.08
2023-05-17T05:36:17.550Z,100711.25
2023-05-17T05:38:44.617Z,100708.63
2023-05-17T05:41:11.688Z,100711.98
2023-05-17T05:43:41.755Z,100717.45
2023-05-17T05:46:08.863Z,100714.92
2023-05-17T05:48:39.632Z,100721.50
2023-05-17T05:51:07.547Z,100721.30
2023-05-17T05:53:36.946Z,100723.27
2023-05-17T05:56:04.783Z,100724.54
2023-05-17T05:58:32.165Z,100723.33
2023-05-17T06:01:00.453Z,100724.10
2023-05-17T06:03:27.505Z,100726.15
2023-05-17T06:05:55.876Z,100724.82
2023-05-17T06:08:22.941Z,100721.59
2023-05-17T06:10:50.035Z,100726.92
2023-05-17T06:13:17.092Z,100726.37
2023-05-17T06:15:44.151Z,100728.88
2023-05-17T06:18:11.277Z,100725.40
2023-05-17T06:20:38.318Z,100729.09
2023-05-17T06:23:06.071Z,100731.30
2023-05-17T06:25:33.738Z,100728.66
2023-05-17T06:28:03.118Z,100730.98
2023-05-17T06:30:31.324Z,100729.96
2023-05-17T06:32:58.633Z,100732.52
2023-05-17T06:35:26.144Z,100737.29
2023-05-17T06:37:53.440Z,100741.87
2023-05-17T06:40:20.524Z,100743.16
2023-05-17T06:42:47.559Z,100744.14
2023-05-17T06:45:14.707Z,100742.00
2023-05-17T06:47:41.854Z,100741.77
2023-05-17T06:50:09.551Z,100740.21
2023-05-17T06:52:36.809Z,100739.84
2023-05-17T06:55:04.033Z,100741.55
2023-05-17T06:57:31.217Z,100742.56
2023-05-17T06:59:59.714Z,100740.70
2023-05-17T07:02:26.824Z,100741.24
2023-05-17T07:04:53.993Z,100733.95
2023-05-17T07:07:21.420Z,100735.95
2023-05-17T07:09:48.466Z,100733.73
2023-05-17T07:12:15.573Z,100736.91
2023-05-17T07:14:42.642Z,100733.90
2023-05-17T07:17:11.834Z,100732.14
2023-05-17T07:19:39.111Z,100731.80
2023-05-17T07:22:06.711Z,100732.39
2023-05-17T07:24:36.033Z,100731.64
2023-05-17T07:27:03.135Z,100732.84
2023-05-17T07:29:30.224Z,100732.91
2023-05-17T07:31:57.638Z,100737.22
2023-05-17T07:34:24.824Z,100738.40
2023-05-17T07:36:51.880Z,100739.58
2023-05-17T07:39:20.236Z,100739.38
2023-05-17T07:41:47.342Z,100742.90
2023-05-17T07:44:14.403Z,100739.70
2023-05-17T07:46:41.677Z,100740.14
2023-05-17T07:49:08.984Z,100739.55
2023-05-17T07:51:36.749Z,100740.40
2023-05-17T07:54:06.882Z,100741.32
2023-05-17T07:56:34.001Z,100743.79
2023-05-17T07:59:01.106Z,100740.09
2023-05-17T08:01:28.179Z,100743.38
2023-05-17T08:03:55.451Z,100741.50
2023-05-17T08:06:22.571Z,100738.55
2023-05-17T08:08:49.743Z,100741.73
2023-05-17T08:11:17.081Z,100745.72
2023-05-17T08:13:44.596Z,100747.88
2023-05-17T08:16:14.563Z,100745.48
2023-05-17T08:18:43.754Z,100746.32
2023-05-17T08:21:11.714Z,100747.64
2023-05-17T08:23:39.470Z,100746.90
2023-05-17T08:26:06.987Z,100749.78
2023-05-17T08:28:34.284Z,100748.86
2023-05-17T08:31:01.465Z,100744.15
2023-05-17T08:33:28.784Z,100744.09
2023-05-17T08:35:58.064Z,100746.45
2023-05-17T08:38:25.143Z,100749.09
2023-05-17T08:40:55.469Z,100749.27
2023-05-17T08:43:24.676Z,100747.29
2023-05-17T08:45:53.228Z,100749.66
2023-05-17T08:48:20.671Z,100752.02
2023-05-17T08:50:48.429Z,100750.91
2023-05-17T08:53:15.558Z,100752.08
2023-05-17T08:55:45.551Z,100752.64
2023-05-17T08:58:12.679Z,100748.48
2023-05-17T09:00:39.716Z,100748.98
2023-05-17T09:03:07.012Z,100748.72
2023-05-17T09:05:34.205Z,100748.48
2023-05-17T09:08:01.509Z,100748.58
2023-05-17T09:10:31.007Z,100748.10
2023-05-17T09:12:58.212Z,100748.45
2023-05-17T09:15:27.339Z,100751.79
2023-05-17T09:17:54.720Z,100754.30
2023-05-17T09:20:26.164Z,100753.94
2023-05-17T09:22:53.482Z,100754.41
2023-05-17T09:25:21.883Z,100752.11
2023-05-17T09:27:48.945Z,100747.86
2023-05-17T09:30:16.108Z,100747.42
2023-05-17T09:32:46.602Z,100746.02
2023-05-17T09:35:14.269Z,100748.73
2023-05-17T09:37:43.485Z,100745.36
2023-05-17T09:40:10.915Z,100743.88
2023-05-17T09:42:39.442Z,100741.11
2023-05-17T09:45:07.023Z,100742.90
2023-05-17T09:47:37.869Z,100741.07
2023-05-17T09:50:06.637Z,100739.52
2023-05-17T09:52:35.553Z,100740.77
2023-05-17T09:55:02.701Z,100736.96
2023-05-17T09:57:38.010Z,100734.73
2023-05-17T10:00:13.574Z,100735.22
2023-05-17T10:02:45.790Z,100732.67
2023-05-17T10:05:13.312Z,100729.64
2023-05-17T10:07:40.418Z,100728.85
2023-05-17T10:10:08.646Z,100726.25
2023-05-17T10:12:35.729Z,100721.83
2023-05-17T10:15:02.845Z,100720.28
2023-05-17T10:17:30.396Z,100725.72
2023-05-17T10:19:58.278Z,100725.39
2023-05-17T10:22:25.413Z,100723.41
2023-05-17T10:24:52.554Z,100722.39
2023-05-17T10:27:19.912Z,100724.77
2023-05-17T10:29:49.947Z,100725.78
2023-05-17T10:32:17.707Z,100723.17
2023-05-17T10:34:47.530Z,100725.39
2023-05-17T10:37:18.928Z,100722.48
2023-05-17T10:39:47.053Z,100723.73
2023-05-17T10:42:15.393Z,100721.05
2023-05-17T10:44:44.567Z,100720.48
2023-05-17T10:47:13.426Z,100718.98
2023-05-17T10:49:42.188Z,100719.71
2023-05-17T10:52:13.433Z,100722.22
2023-05-17T10:54:44.027Z,100719.73
2023-05-17T10:57:20.135Z,100715.45
2023-05-17T10:59:56.732Z,100718.55
2023-05-17T11:02:24.137Z,100722.92
2023-05-17T11:04:56.343Z,100719.58
2023-05-17T11:07:32.600Z,100720.30
2023-05-17T11:10:12.898Z,100723.36
2023-05-17T11:12:48.296Z,100718.69
2023-05-17T11:15:16.113Z,100720.02
2023-05-17T11:17:57.292Z,100722.70
2023-05-17T11:20:24.613Z,100719.50
2023-05-17T11:23:02.807Z,100718.46
2023-05-17T11:25:33.019Z,100716.77
2023-05-17T11:28:00.323Z,100718.45
2023-05-17T11:30:29.627Z,100715.17
2023-05-17T11:33:11.136Z,100715.07
2023-05-17T11:35:49.117Z,100716.30
2023-05-17T11:38:24.854Z,100714.66
2023-05-17T11:40:56.485Z,100715.80
2023-05-17T11:43:25.871Z,100713.88
2023-05-17T11:45:58.749Z,100714.66
2023-05-17T11:48:26.750Z,100715.01
2023-05-17T11:50:57.112Z,100715.70
2023-05-17T11:53:28.694Z,100715.09
2023-05-17T11:55:56.165Z,100709.91
2023-05-17T11:58:26.846Z,100708.80
2023-05-17T12:00:55.241Z,100705.48
2023-05-17T12:03:23.321Z,100702.16
2023-05-17T12:05:52.028Z,100702.02
2023-05-17T12:08:20.171Z,100698.33
2023-05-17T12:10:52.394Z,100692.33
2023-05-17T12:13:19.877Z,100694.90
2023-05-17T12:16:08.900Z,100691.32
2023-05-17T12:18:42.545Z,100688.29
2023-05-17T12:21:10.722Z,100682.47
2023-05-17T12:23:43.807Z,100676.63
2023-05-17T12:26:18.015Z,100675.01
2023-05-17T12:28:56.562Z,100675.98
2023-05-17T12:31:27.276Z,100670.70
2023-05-17T12:33:54.460Z,100667.39
2023-05-17T12:36:21.538Z,100663.48
2023-05-17T12:38:48.625Z,100661.61
2023-05-17T12:41:16.156Z,100661.07
2023-05-17T12:43:44.858Z,100660.20
2023-05-17T12:46:19.098Z,100654.44
2023-05-17T12:48:47.068Z,100651.29
2023-05-17T12:51:15.925Z,100650.27
2023-05-17T12:53:53.946Z,100646.95
2023-05-17T12:56:27.219Z,100647.80
2023-05-17T12:59:29.029Z,100643.48
2023-05-17T13:01:57.252Z,100643.09
2023-05-17T13:04:34.552Z,100642.84
2023-05-17T13:07:02.973Z,100641.57
2023-05-17T13:09:33.733Z,100643.70
2023-05-17T13:12:02.598Z,100643.11
2023-05-17T13:14:45.799Z,100643.16
2023-05-17T13:17:24.370Z,100641.27
2023-05-17T13:19:52.198Z,100640.35
2023-05-17T13:22:19.357Z,100641.05
2023-05-17T13:24:46.731Z,100641.02
2023-05-17T13:27:13.947Z,100643.60
2023-05-17T13:29:43.660Z,100646.05
2023-05-17T13:32:12.856Z,100643.91
2023-05-17T13:34:40.327Z,100644.68
2023-05-17T13:37:11.136Z,100642.70
2023-05-17T13:39:39.693Z,100643.88
2023-05-17T13:42:08.080Z,100642.46
2023-05-17T13:44:35.214Z,100643.15
2023-05-17T13:47:02.355Z,100643.61
2023-05-17T13:49:29.472Z,100640.14
2023-05-17T13:51:57.052Z,100641.05
2023-05-17T13:54:24.184Z,100641.78
2023-05-17T13:56:51.348Z,100644.21
2023-05-17T13:59:18.706Z,100642.93
2023-05-17T14:01:46.063Z,100639.05
2023-05-17T14:04:13.530Z,100637.61
2023-05-17T14:06:42.139Z,100638.84
2023-05-17T14:09:09.416Z,100638.89
2023-05-17T14:11:36.537Z,100641.13
2023-05-17T14:14:04.479Z,100637.58
2023-05-17T14:16:31.594Z,100638.69
2023-05-17T14:19:01.017Z,100640.27
2023-05-17T14:21:30.113Z,100637.79
2023-05-17T14:23:57.347Z,100637.33
2023-05-17T14:26:24.471Z,100636.92
2023-05-17T14:28:52.111Z,100635.24
2023-05-17T14:31:19.167Z,100632.79
2023-05-17T14:33:47.778Z,100632.81
2023-05-17T14:36:14.915Z,100629.33
2023-05-17T14:38:42.386Z,100626.38
2023-05-17T14:41:09.450Z,100621.63
2023-05-17T14:43:36.851Z,100622.70
2023-05-17T14:46:04.397Z,100623.41
2023-05-17T14:48:34.301Z,100624.19
2023-05-17T14:51:03.661Z,100625.11
2023-05-17T14:53:30.995Z,100622.50
2023-05-17T14:55:59.107Z,100621.93
2023-05-17T14:58:26.691Z,100619.41
2023-05-17T15:01:06.689Z,100617.55
2023-05-17T15:03:34.652Z,100613.68
2023-05-17T15:06:05.059Z,100618.14
2023-05-17T15:08:34.928Z,100616.42
2023-05-17T15:11:02.197Z,100617.91
2023-05-17T15:13:30.241Z,100615.67
2023-05-17T15:15:57.344Z,100619.77
2023-05-17T15:18:24.432Z,100616.52
2023-05-17T15:20:51.984Z,100613.78
2023-05-17T15:23:19.009Z,100612.69
2023-05-17T15:25:46.720Z,100611.64
2023-05-17T15:28:14.368Z,100610.71
2023-05-17T15:30:42.311Z,100613.21
2023-05-17T15:33:10.162Z,100611.38
2023-05-17T15:35:41.601Z,100604.42
2023-05-17T15:38:08.703Z,100604.39
2023-05-17T15:40:35.719Z,100602.72
2023-05-17T15:43:02.819Z,100605.22
2023-05-17T15:45:30.110Z,100605.65
2023-05-17T15:47:57.564Z,100605.77
2023-05-17T15:50:24.666Z,100605.23
2023-05-17T15:52:51.762Z,100603.45
2023-05-17T15:55:20.403Z,100602.63
2023-05-17T15:57:48.060Z,100600.61
2023-05-17T16:00:15.680Z,100606.45
2023-05-17T16:02:42.951Z,100606.75
2023-05-17T16:05:10.348Z,100608.13
2023-05-17T16:07:37.525Z,100608.79
2023-05-17T16:10:05.091Z,100609.91
2023-05-17T16:12:32.200Z,100612.77
2023-05-17T16:14:59.280Z,100611.67
2023-05-17T16:17:26.978Z,100609.02
2023-05-17T16:19:54.086Z,100608.59
2023-05-17T16:22:21.736Z,100611.98
2023-05-17T16:24:52.665Z,100611.11
2023-05-17T16:27:20.191Z,100610.81
2023-05-17T16:29:47.281Z,100610.58
2023-05-17T16:32:14.387Z,100612.34
2023-05-17T16:34:41.683Z,100617.17
2023-05-17T16:37:08.793Z,100613.44
2023-05-17T16:39:35.822Z,100614.47
2023-05-17T16:42:02.837Z,100610.09
2023-05-17T16:44:29.907Z,100612.24
2023-05-17T16:46:57.015Z,100609.39
2023-05-17T16:49:24.129Z,100612.91
2023-05-17T16:51:52.423Z,100610.82
2023-05-17T16:54:19.995Z,100611.13
2023-05-17T16:56:47.429Z,100611.33
2023-05-17T16:59:16.000Z,100610.50
2023-05-17T17:01:43.432Z,100612.11
2023-05-17T17:04:10.582Z,100612.19
2023-05-17T17:06:38.302Z,100612.59
2023-05-17T17:09:08.011Z,100614.48
2023-05-17T17:11:35.499Z,100617.41
2023-05-17T17:14:04.621Z,100620.04
2023-05-17T17:16:32.189Z,100620.52
2023-05-17T17:18:59.677Z,100621.40
2023-05-17T17:21:26.816Z,100618.65
2023-05-17T17:23:53.914Z,100619.65
2023-05-17T17:26:22.144Z,100621.94
2023-05-17T17:28:49.239Z,100624.79
2023-05-17T17:31:18.432Z,100623.30
2023-05-17T17:33:45.527Z,100625.16
2023-05-17T17:36:12.635Z,100626.30
2023-05-17T17:38:39.624Z,100628.97
2023-05-17T17:41:06.758Z,100626.16
2023-05-17T17:43:33.835Z,100629.19
2023-05-17T17:46:01.151Z,100633.67
2023-05-17T17:48:28.201Z,100634.23
2023-05-17T17:50:55.825Z,100635.56
2023-05-17T17:53:23.485Z,100633.27
2023-05-17T17:55:50.842Z,100635.21
2023-05-17T17:58:17.896Z,100639.40
2023-05-17T18:00:44.907Z,100640.79
2023-05-17T18:03:13.282Z,100639.73
2023-05-17T18:05:40.573Z,100645.48
2023-05-17T18:08:08.100Z,100642.39
2023-05-17T18:10:36.024Z,100645.50
2023-05-17T18:13:03.194Z,100649.71
2023-05-17T18:15:30.292Z,100649.64
2023-05-17T18:17:57.633Z,100650.00
2023-05-17T18:20:26.664Z,100646.86
2023-05-17T18:22:53.765Z,100648.91
2023-05-17T18:25:21.557Z,100650.86
2023-05-17T18:27:49.568Z,100650.27
2023-05-17T18:30:18.594Z,100653.35
2023-05-17T18:32:49.173Z,100651.98
2023-05-17T18:35:16.463Z,100649.27
2023-05-17T18:37:43.650Z,100651.70
2023-05-17T18:40:11.415Z,100651.52
2023-05-17T18:42:38.575Z,100656.14
2023-05-17T18:45:07.923Z,100658.70
2023-05-17T18:47:35.051Z,100655.29
2023-05-17T18:50:02.393Z,100657.52
2023-05-17T18:52:29.552Z,100655.84
2023-05-17T18:54:56.683Z,100652.75
2023-05-17T18:57:23.822Z,100661.11
2023-05-17T18:59:51.017Z,100656.98
2023-05-17T19:02:18.180Z,100658.35
2023-05-17T19:04:45.282Z,100658.97
2023-05-17T19:07:12.399Z,100661.36
2023-05-17T19:09:39.524Z,100662.09
2023-05-17T19:12:07.027Z,100661.23
2023-05-17T19:14:34.248Z,100665.71
2023-05-17T19:17:03.379Z,100668.12
2023-05-17T19:19:31.481Z,100669.33
2023-05-17T19:22:00.730Z,100669.80
2023-05-17T19:24:28.042Z,100672.09
2023-05-17T19:26:55.102Z,100672.52
2023-05-17T19:29:22.487Z,100673.08
2023-05-17T19:31:49.672Z,100670.97
2023-05-17T19:34:16.754Z,100669.91
2023-05-17T19:36:43.829Z,100668.51
2023-05-17T19:39:11.111Z,100670.18
2023-05-17T19:41:38.245Z,100667.77
2023-05-17T19:44:06.418Z,100667.58
2023-05-17T19:46:33.822Z,100664.84
2023-05-17T19:49:01.175Z,100666.64
2023-05-17T19:51:28.472Z,100672.23
2023-05-17T19:53:55.671Z,100673.27
2023-05-17T19:56:25.973Z,100669.20
2023-05-17T19:58:54.204Z,100674.02
2023-05-17T20:01:24.293Z,100674.03
2023-05-17T20:03:52.069Z,100673.00
2023-05-17T20:06:19.267Z,100673.91
2023-05-17T20:08:47.210Z,100672.73
2023-05-17T20:11:14.356Z,100672.68
2023-05-17T20:13:41.419Z,100672.66
2023-05-17T20:16:15.060Z,100675.27
2023-05-17T20:18:42.761Z,100678.95
2023-05-17T20:21:11.651Z,100675.95
2023-05-17T20:23:38.784Z,100680.96
2023-05-17T20:26:07.235Z,100678.58
2023-05-17T20:28:34.418Z,100679.64
2023-05-17T20:31:01.605Z,100678.63
2023-05-17T20:33:28.715Z,100675.54
2023-05-17T20:35:55.931Z,100681.58
2023-05-17T20:38:23.072Z,100682.79
2023-05-17T20:40:52.133Z,100684.16
2023-05-17T20:43:20.237Z,100685.08
2023-05-17T20:45:50.155Z,100684.44
2023-05-17T20:48:17.279Z,100683.88
2023-05-17T20:50:45.200Z,100682.27
2023-05-17T20:53:12.302Z,100684.23
2023-05-17T20:55:39.556Z,100688.65
2023-05-17T20:58:06.645Z,100687.40
2023-05-17T21:00:33.730Z,100687.32
2023-05-17T21:03:00.897Z,100691.45
2023-05-17T21:05:28.650Z,100689.73
2023-05-17T21:07:56.928Z,100688.27
2023-05-17T21:10:24.507Z,100688.65
2023-05-17T21:12:52.682Z,100689.88
2023-05-17T21:15:19.962Z,100685.98
2023-05-17T21:17:47.214Z,100689.77
2023-05-17T21:20:14.503Z,100690.48
2023-05-17T21:22:41.585Z,100692.32
2023-05-17T21:25:09.077Z,100691.80
2023-05-17T21:27:36.160Z,100692.09
2023-05-17T21:30:05.071Z,100695.52
2023-05-17T21:32:32.278Z,100693.69
2023-05-17T21:34:59.843Z,100696.02
2023-05-17T21:37:29.115Z,100695.13
2023-05-17T21:39:56.508Z,100696.59
2023-05-17T21:42:23.560Z,100694.08
2023-05-17T21:44:51.270Z,100698.82
2023-05-17T21:47:18.265Z,100696.23
2023-05-17T21:49:45.318Z,100694.89
2023-05-17T21:52:12.650Z,100697.57
2023-05-17T21:54:41.542Z,100697.95
2023-05-17T21:57:08.581Z,100699.15
2023-05-17T21:59:35.693Z,100699.95
2023-05-17T22:02:02.809Z,100700.39
2023-05-17T22:04:29.885Z,100699.11
2023-05-17T22:06:57.037Z,100698.31
2023-05-17T22:09:24.165Z,100700.15
2023-05-17T22:11:51.292Z,100702.56
2023-05-17T22:14:18.323Z,100699.63
2023-05-17T22:16:45.387Z,100702.61
2023-05-17T22:19:12.492Z,100703.19
2023-05-17T22:21:39.511Z,100705.39
2023-05-17T22:24:07.033Z,100700.13
2023-05-17T22:26:34.128Z,100701.59
2023-05-17T22:29:01.426Z,100700.94
2023-05-17T22:31:28.673Z,100701.64
2023-05-17T22:33:55.782Z,100703.36
2023-05-17T22:36:25.132Z,100701.11
2023-05-17T22:38:52.373Z,100701.29
2023-05-17T22:41:19.902Z,100700.06
2023-05-17T22:43:46.986Z,100704.77
2023-05-17T22:46:16.218Z,100705.58
2023-05-17T22:48:43.307Z,100705.91
2023-05-17T22:51:10.335Z,100704.73
2023-05-17T22:53:37.385Z,100707.79
2023-05-17T22:56:04.649Z,100707.95
2023-05-17T22:58:31.788Z,100710.84
2023-05-17T23:00:58.833Z,100714.64
2023-05-17T23:03:25.989Z,100715.98
2023-05-17T23:06:02.464Z,100719.06
2023-05-17T23:08:30.360Z,100717.90
2023-05-17T23:10:58.931Z,100722.92
2023-05-17T23:13:26.468Z,100719.71
2023-05-17T23:15:53.964Z,100721.67
2023-05-17T23:18:21.313Z,100720.29
2023-05-17T23:20:49.209Z,100726.02
2023-05-17T23:23:16.479Z,100722.36
2023-05-17T23:25:48.618Z,100722.10
2023-05-17T23:28:16.014Z,100725.98
2023-05-17T23:30:44.797Z,100727.21
2023-05-17T23:33:11.855Z,100728.92
2023-05-17T23:35:38.924Z,100731.92
2023-05-17T23:38:07.416Z,100733.84
2023-05-17T23:40:39.705Z,100730.55
2023-05-17T23:43:08.865Z,100731.23
2023-05-17T23:45:35.980Z,100730.90
2023-05-17T23:48:03.547Z,100736.31
2023-05-17T23:50:30.747Z,100741.23
2023-05-17T23:52:57.737Z,100741.36
2023-05-17T23:55:24.766Z,100740.02
2023-05-17T23:57:52.047Z,100739.27
